Time;durP1;ratioP1;P1;durP2;ratioP2;P2;SDS_P1;SDS_P2;PMS_P1;PMS_P2;Temp;Humidity;BMP_temperature;BMP_pressure;BME280_temperature;BME280_humidity;BME280_pressure;Samples;Min_cycle;Max_cycle;Signal;HPM_P1;HPM_P2
2022/02/01 00:02:29;;;;;;;3.17;1.77;;;17.20;53.90;;;;;;5052277;28;20579;-60
2022/02/01 00:05:12;;;;;;;3.05;1.85;;;17.20;53.90;;;;;;5052579;28;20182;-60
2022/02/01 00:37:09;;;;;;;3.55;2.17;;;17.00;53.90;;;;;;5051434;28;20221;-60
2022/02/01 00:39:43;;;;;;;5.10;2.05;;;17.00;53.90;;;;;;5054692;28;20205;-60
2022/02/01 00:42:10;;;;;;;3.92;1.63;;;17.00;53.90;;;;;;5055268;28;20250;-60
2022/02/01 00:44:36;;;;;;;3.25;1.95;;;17.00;54.00;;;;;;5056114;28;20175;-61
2022/02/01 00:47:02;;;;;;;4.32;1.85;;;17.00;54.00;;;;;;5055781;28;20233;-60
2022/02/01 00:49:29;;;;;;;2.63;1.60;;;16.90;53.90;;;;;;5055337;28;20522;-62
2022/02/01 00:51:54;;;;;;;3.42;1.30;;;16.90;53.90;;;;;;5055388;28;20235;-60
2022/02/01 00:54:20;;;;;;;4.25;1.63;;;16.90;53.90;;;;;;5056036;28;20216;-61
2022/02/01 00:56:45;;;;;;;4.00;1.58;;;16.90;53.90;;;;;;5055263;28;20171;-61
2022/02/01 00:59:11;;;;;;;4.43;1.40;;;16.90;53.80;;;;;;5055625;28;20168;-60
2022/02/01 01:01:36;;;;;;;2.78;1.48;;;16.90;53.90;;;;;;5055879;28;20260;-60
2022/02/01 01:04:02;;;;;;;3.42;1.40;;;16.90;53.90;;;;;;5054792;28;20202;-59
2022/02/01 01:06:28;;;;;;;4.10;1.45;;;16.90;53.90;;;;;;5055642;28;20175;-59
2022/02/01 01:08:54;;;;;;;4.05;1.70;;;16.80;53.90;;;;;;5055477;28;20781;-60
2022/02/01 01:11:19;;;;;;;2.92;1.38;;;16.80;53.80;;;;;;5054971;28;20225;-61
2022/02/01 01:14:19;;;;;;;5.22;1.73;;;16.80;53.80;;;;;;5055673;28;20206;-62
2022/02/01 01:38:46;;;;;;;4.32;1.63;;;16.80;53.90;;;;;;5054407;28;20186;-60
2022/02/01 01:43:54;;;;;;;3.33;1.42;;;16.70;53.80;;;;;;5055069;28;20234;-61
2022/02/01 01:54:18;;;;;;;3.45;1.55;;;16.70;53.80;;;;;;5054055;28;20246;-60
2022/02/01 01:56:44;;;;;;;3.05;1.70;;;16.70;53.80;;;;;;5054627;28;20211;-60
2022/02/01 01:59:10;;;;;;;2.72;1.35;;;16.60;53.80;;;;;;5054562;28;20252;-60
2022/02/01 02:01:35;;;;;;;2.50;1.30;;;16.60;53.70;;;;;;5054012;28;20175;-61
2022/02/01 02:04:02;;;;;;;3.85;1.92;;;16.70;53.90;;;;;;5054289;28;20175;-60
2022/02/01 02:06:28;;;;;;;3.47;1.70;;;16.60;53.80;;;;;;5053992;28;20232;-60
2022/02/01 02:08:55;;;;;;;3.35;1.67;;;16.60;53.80;;;;;;5054301;28;20262;-60
2022/02/01 02:14:23;;;;;;;2.70;1.30;;;16.60;53.70;;;;;;5053363;28;20649;-61
2022/02/01 02:16:52;;;;;;;2.42;1.10;;;16.60;53.70;;;;;;5054404;28;20193;-61
2022/02/01 02:19:19;;;;;;;4.25;1.70;;;16.60;53.80;;;;;;5054271;28;20171;-60
2022/02/01 02:21:46;;;;;;;3.08;1.30;;;16.60;53.80;;;;;;5053451;28;20175;-60
2022/02/01 02:24:12;;;;;;;3.67;1.52;;;16.60;53.70;;;;;;5053957;28;20171;-60
2022/02/01 02:26:37;;;;;;;3.47;1.45;;;16.60;53.80;;;;;;5054390;28;20179;-60
2022/02/01 02:29:04;;;;;;;2.35;1.45;;;16.60;53.70;;;;;;5035528;28;20187;-60
2022/02/01 02:31:32;;;;;;;3.72;1.67;;;16.50;53.70;;;;;;5053853;28;20669;-61
2022/02/01 02:34:05;;;;;;;3.85;1.40;;;16.50;53.70;;;;;;5053730;28;20210;-61
2022/02/01 02:36:34;;;;;;;2.47;1.50;;;16.50;53.70;;;;;;5053461;28;20182;-60
2022/02/01 02:39:08;;;;;;;4.10;1.60;;;16.50;53.70;;;;;;5053837;28;20171;-60
2022/02/01 02:41:36;;;;;;;3.83;1.67;;;16.50;53.80;;;;;;5053999;28;20226;-61
2022/02/01 02:46:50;;;;;;;3.55;1.40;;;16.50;53.70;;;;;;5053888;28;20174;-61
2022/02/01 02:49:18;;;;;;;4.03;1.45;;;16.50;53.70;;;;;;5052828;28;20171;-60
2022/02/01 02:51:43;;;;;;;3.10;1.58;;;16.50;53.70;;;;;;5053561;28;20305;-61
2022/02/01 02:54:14;;;;;;;2.45;1.42;;;16.50;54.40;;;;;;5053250;28;20297;-61
2022/02/01 02:56:53;;;;;;;1.83;1.10;;;16.50;53.80;;;;;;5053032;28;20175;-60
2022/02/01 02:59:20;;;;;;;4.45;1.77;;;16.50;53.70;;;;;;5053585;28;20187;-60
2022/02/01 03:01:49;;;;;;;3.25;1.48;;;16.40;53.70;;;;;;5035587;28;20272;-60
2022/02/01 03:04:15;;;;;;;3.45;1.25;;;16.40;53.70;;;;;;5052590;28;20176;-60
2022/02/01 03:06:41;;;;;;;2.35;1.33;;;16.40;53.70;;;;;;5053374;28;20660;-61
2022/02/01 03:09:09;;;;;;;2.92;1.33;;;16.40;53.60;;;;;;5053173;28;20175;-61
2022/02/01 03:11:35;;;;;;;3.78;1.33;;;16.40;53.60;;;;;;5052417;28;20544;-61
2022/02/01 03:14:04;;;;;;;2.97;1.48;;;16.40;53.70;;;;;;5052999;28;20175;-61
2022/02/01 03:16:47;;;;;;;3.38;1.60;;;16.40;53.70;;;;;;5053456;28;20186;-61
2022/02/01 03:21:57;;;;;;;4.65;1.40;;;16.40;53.70;;;;;;5052888;28;20194;-60
2022/02/01 03:24:22;;;;;;;3.00;1.20;;;16.30;53.60;;;;;;5052699;28;20634;-64
2022/02/01 03:26:48;;;;;;;2.72;1.40;;;16.40;53.60;;;;;;5053411;28;20525;-62
2022/02/01 03:29:13;;;;;;;2.20;1.38;;;16.30;53.60;;;;;;5052742;28;20540;-60
2022/02/01 03:31:39;;;;;;;2.63;1.35;;;16.30;53.60;;;;;;5052279;28;20179;-60
2022/02/01 03:34:04;;;;;;;3.53;1.60;;;16.30;53.60;;;;;;5052689;28;20171;-59
2022/02/01 03:36:30;;;;;;;2.95;1.27;;;16.30;53.50;;;;;;5052883;28;20261;-61
2022/02/01 03:38:57;;;;;;;4.05;1.38;;;16.30;53.60;;;;;;5051871;28;20567;-60
2022/02/01 03:41:23;;;;;;;4.65;1.40;;;16.30;53.60;;;;;;5053012;28;20175;-60
2022/02/01 03:43:48;;;;;;;2.88;1.10;;;16.30;53.60;;;;;;5052973;28;20175;-60
2022/02/01 03:46:14;;;;;;;2.58;1.30;;;16.30;53.60;;;;;;5051898;28;20168;-60
2022/02/01 03:48:40;;;;;;;2.58;1.30;;;16.30;53.60;;;;;;5052986;28;20175;-60
2022/02/01 03:51:05;;;;;;;2.42;1.15;;;16.30;53.60;;;;;;5052515;28;20186;-60
2022/02/01 03:53:31;;;;;;;2.88;1.48;;;16.30;53.50;;;;;;5051669;28;20223;-60
2022/02/01 03:55:56;;;;;;;3.65;1.60;;;16.20;53.40;;;;;;5052369;28;20175;-60
2022/02/01 03:58:21;;;;;;;1.55;1.00;;;16.20;53.40;;;;;;5052721;28;20587;-59
2022/02/01 04:00:47;;;;;;;3.50;1.48;;;16.20;53.40;;;;;;5051818;28;20174;-60
2022/02/01 04:03:13;;;;;;;3.13;1.58;;;16.20;53.40;;;;;;5052380;28;20179;-60
2022/02/01 04:05:38;;;;;;;2.20;1.17;;;16.20;53.40;;;;;;5052619;28;20186;-60
2022/02/01 04:08:04;;;;;;;3.17;1.50;;;16.30;53.40;;;;;;5050662;28;20183;-60
2022/02/01 04:10:29;;;;;;;2.65;1.50;;;16.20;53.40;;;;;;5052750;28;20182;-60
2022/02/01 04:12:57;;;;;;;3.13;1.48;;;16.20;53.40;;;;;;5052293;28;20689;-60
2022/02/01 04:15:25;;;;;;;3.40;1.20;;;16.20;53.40;;;;;;5055950;28;20175;-61
2022/02/01 04:17:51;;;;;;;2.70;1.42;;;16.20;53.40;;;;;;5056613;28;20179;-60
2022/02/01 04:20:16;;;;;;;1.98;1.10;;;16.20;53.40;;;;;;5055477;28;20171;-60
2022/02/01 04:22:42;;;;;;;3.42;1.35;;;16.20;53.40;;;;;;5056424;28;20583;-60
2022/02/01 04:25:07;;;;;;;2.85;1.40;;;16.20;53.40;;;;;;5056316;28;20175;-60
2022/02/01 04:27:33;;;;;;;2.83;1.45;;;16.20;53.40;;;;;;5056143;28;20175;-60
2022/02/01 04:30:09;;;;;;;2.97;1.40;;;16.20;53.50;;;;;;5055908;28;20168;-59
2022/02/01 04:32:38;;;;;;;3.05;1.42;;;16.10;53.40;;;;;;5056246;28;20213;-60
2022/02/01 04:35:06;;;;;;;4.10;1.50;;;16.20;53.30;;;;;;5055144;28;20175;-60
2022/02/01 04:37:31;;;;;;;2.55;1.30;;;16.10;53.40;;;;;;5056127;28;20547;-60
2022/02/01 04:39:57;;;;;;;2.00;1.27;;;16.10;53.40;;;;;;5056111;28;20171;-59
2022/02/01 04:42:24;;;;;;;2.00;1.17;;;16.10;53.50;;;;;;5055494;28;20178;-60
2022/02/01 04:44:50;;;;;;;2.63;1.25;;;16.10;53.40;;;;;;5056196;28;20179;-60
2022/02/01 04:47:15;;;;;;;3.28;1.58;;;16.10;53.40;;;;;;5055652;28;20536;-60
2022/02/01 04:49:41;;;;;;;4.70;1.60;;;16.10;53.50;;;;;;5055244;28;20175;-61
2022/02/01 04:52:09;;;;;;;2.75;1.27;;;16.10;53.50;;;;;;5055480;28;20731;-60
2022/02/01 04:54:35;;;;;;;2.88;1.63;;;16.10;53.40;;;;;;5056009;28;20246;-60
2022/02/01 04:57:00;;;;;;;3.20;1.27;;;16.10;53.50;;;;;;5054937;28;20187;-60
2022/02/01 04:59:26;;;;;;;2.92;1.10;;;16.10;53.50;;;;;;5056141;28;20182;-60
2022/02/01 05:01:51;;;;;;;1.80;1.05;;;16.00;53.40;;;;;;5055635;28;20512;-60
2022/02/01 05:04:20;;;;;;;2.85;1.50;;;16.00;53.40;;;;;;5054667;28;20175;-59
2022/02/01 05:06:52;;;;;;;3.42;1.40;;;16.00;53.30;;;;;;5055771;28;20171;-61
2022/02/01 05:09:18;;;;;;;1.90;1.00;;;16.00;53.30;;;;;;5055545;28;20187;-60
2022/02/01 05:11:44;;;;;;;1.88;1.20;;;16.00;53.40;;;;;;5055032;28;20167;-61
2022/02/01 05:14:27;;;;;;;1.92;1.30;;;16.00;53.30;;;;;;5055291;28;20555;-63
2022/02/01 05:19:31;;;;;;;2.35;1.48;;;15.90;53.30;;;;;;5055586;28;20543;-62
2022/02/01 05:22:01;;;;;;;2.72;0.98;;;15.90;53.20;;;;;;5055320;28;20179;-61
2022/02/01 05:24:27;;;;;;;2.20;1.00;;;15.90;53.30;;;;;;5054017;28;20544;-60
2022/02/01 05:26:56;;;;;;;3.95;1.58;;;15.90;53.30;;;;;;5055056;28;20182;-60
2022/02/01 05:29:23;;;;;;;3.60;1.30;;;15.90;53.20;;;;;;5055432;28;20194;-59
2022/02/01 05:31:49;;;;;;;2.22;1.20;;;15.90;53.20;;;;;;5054650;28;20281;-59
2022/02/01 05:34:15;;;;;;;2.22;1.38;;;15.90;53.30;;;;;;5055091;28;20190;-59
2022/02/01 05:36:40;;;;;;;2.05;1.10;;;15.90;53.30;;;;;;5055582;28;20175;-60
2022/02/01 05:39:13;;;;;;;3.78;1.45;;;15.90;53.30;;;;;;5054151;28;20183;-60
2022/02/01 05:41:38;;;;;;;3.85;1.65;;;15.90;53.30;;;;;;5055010;28;20190;-61
2022/02/01 05:44:04;;;;;;;2.85;1.17;;;15.90;53.30;;;;;;5054734;28;20175;-60
2022/02/01 05:46:30;;;;;;;2.90;1.15;;;15.90;53.30;;;;;;5054277;28;20233;-60
2022/02/01 05:48:55;;;;;;;1.90;1.45;;;15.90;53.30;;;;;;5054591;28;20637;-60
2022/02/01 05:51:23;;;;;;;3.25;1.52;;;15.90;53.30;;;;;;5054541;28;20171;-59
2022/02/01 05:53:48;;;;;;;2.65;1.67;;;15.90;53.30;;;;;;5053913;28;20293;-61
2022/02/01 05:56:14;;;;;;;3.20;1.30;;;15.80;53.20;;;;;;5054383;28;20690;-61
2022/02/01 05:58:39;;;;;;;4.07;1.58;;;15.80;53.30;;;;;;5054165;28;20175;-60
2022/02/01 06:01:05;;;;;;;2.65;1.13;;;15.80;53.30;;;;;;5054872;28;20179;-60
2022/02/01 06:03:30;;;;;;;1.52;1.10;;;15.80;53.30;;;;;;5054680;28;20207;-60
2022/02/01 06:05:56;;;;;;;2.20;1.20;;;15.80;53.30;;;;;;5053160;28;20179;-60
2022/02/01 06:08:21;;;;;;;2.20;1.50;;;15.80;53.20;;;;;;5054591;28;20573;-60
2022/02/01 06:10:47;;;;;;;2.50;0.90;;;15.80;53.40;;;;;;5054319;28;20171;-61
2022/02/01 06:13:13;;;;;;;4.35;1.33;;;15.80;53.40;;;;;;5053452;28;20210;-60
2022/02/01 06:15:38;;;;;;;3.47;1.30;;;15.80;53.40;;;;;;5054550;28;20171;-61
2022/02/01 06:18:04;;;;;;;2.30;1.17;;;15.80;53.30;;;;;;5053998;28;20175;-60
2022/02/01 06:20:29;;;;;;;3.13;1.38;;;15.80;53.40;;;;;;5053639;28;20171;-61
2022/02/01 06:22:55;;;;;;;4.60;1.80;;;15.80;53.40;;;;;;5053836;28;20552;-60
2022/02/01 06:25:39;;;;;;;3.40;1.35;;;15.70;53.40;;;;;;5054204;28;20255;-61
2022/02/01 06:28:05;;;;;;;3.70;1.30;;;15.70;53.30;;;;;;5053287;28;20201;-60
2022/02/01 06:30:30;;;;;;;2.20;1.27;;;15.70;53.40;;;;;;5054193;28;20171;-60
2022/02/01 06:32:56;;;;;;;2.25;1.23;;;15.70;53.40;;;;;;5053569;28;20221;-60
2022/02/01 06:35:21;;;;;;;2.00;1.20;;;15.70;53.30;;;;;;5053232;28;20653;-61
2022/02/01 06:37:47;;;;;;;3.25;1.48;;;15.70;53.40;;;;;;5035364;28;20181;-60
2022/02/01 06:40:12;;;;;;;1.73;1.10;;;15.70;53.40;;;;;;5053823;28;20175;-61
2022/02/01 06:42:38;;;;;;;3.00;1.27;;;15.70;53.30;;;;;;5053202;28;20171;-61
2022/02/01 06:45:04;;;;;;;3.10;1.75;;;15.80;53.20;;;;;;5053714;28;20536;-60
2022/02/01 06:47:29;;;;;;;3.40;1.25;;;15.80;53.20;;;;;;5054316;28;20194;-60
2022/02/01 06:49:54;;;;;;;3.53;1.60;;;15.80;53.10;;;;;;5052727;28;20728;-59
2022/02/01 06:52:20;;;;;;;2.30;1.33;;;15.80;53.10;;;;;;5053469;28;20235;-60
2022/02/01 06:54:45;;;;;;;3.83;1.40;;;15.80;53.10;;;;;;5053467;28;20186;-60
2022/02/01 06:57:11;;;;;;;2.05;1.50;;;15.80;53.10;;;;;;5052562;28;20598;-61
2022/02/01 06:59:36;;;;;;;3.10;0.98;;;15.80;53.10;;;;;;5053661;28;20253;-60
2022/02/01 07:02:03;;;;;;;2.00;1.15;;;15.80;53.10;;;;;;5052505;28;20228;-60
2022/02/01 07:04:28;;;;;;;2.28;1.15;;;15.80;53.10;;;;;;5053355;28;20182;-60
2022/02/01 07:06:55;;;;;;;2.38;1.20;;;15.80;53.10;;;;;;5053254;28;20175;-60
2022/02/01 07:09:22;;;;;;;1.85;1.30;;;15.90;53.10;;;;;;5052869;28;20175;-60
2022/02/01 07:11:47;;;;;;;2.72;1.33;;;15.90;53.10;;;;;;5053380;28;20210;-61
2022/02/01 07:14:13;;;;;;;2.28;1.35;;;15.90;53.10;;;;;;5053032;28;20268;-61
2022/02/01 07:16:38;;;;;;;2.80;1.30;;;16.00;53.10;;;;;;5052642;28;20175;-60
2022/02/01 07:19:04;;;;;;;3.47;1.30;;;16.10;53.00;;;;;;5052957;28;20175;-61
2022/02/01 07:21:29;;;;;;;2.80;1.40;;;16.30;52.80;;;;;;5053108;28;20163;-61
2022/02/01 07:23:55;;;;;;;3.03;1.23;;;16.40;52.70;;;;;;5052141;28;20175;-60
2022/02/01 07:26:21;;;;;;;3.00;1.50;;;16.60;52.40;;;;;;5053002;28;20705;-61
2022/02/01 07:28:47;;;;;;;2.72;1.35;;;16.70;52.20;;;;;;5053103;28;20306;-60
2022/02/01 07:31:12;;;;;;;2.55;1.25;;;16.90;52.00;;;;;;5034364;28;20262;-60
2022/02/01 07:33:38;;;;;;;1.60;1.00;;;17.00;51.90;;;;;;5052876;28;20247;-60
2022/02/01 07:36:04;;;;;;;3.08;1.20;;;17.00;51.70;;;;;;5052819;28;20277;-60
2022/02/01 07:38:30;;;;;;;2.35;1.00;;;17.00;51.60;;;;;;5052270;28;20266;-61
2022/02/01 07:40:56;;;;;;;3.08;1.48;;;16.90;51.70;;;;;;5052823;28;20200;-60
2022/02/01 07:43:22;;;;;;;2.60;1.48;;;17.00;51.80;;;;;;5053041;28;20304;-63
2022/02/01 07:45:49;;;;;;;2.45;1.20;;;17.00;51.70;;;;;;5052219;28;20187;-60
2022/02/01 07:48:15;;;;;;;2.88;1.13;;;17.10;51.70;;;;;;5052412;28;20178;-60
2022/02/01 07:50:42;;;;;;;3.33;1.30;;;17.30;51.50;;;;;;5052615;28;20168;-60
2022/02/01 07:53:08;;;;;;;2.72;1.63;;;17.50;51.20;;;;;;5051451;28;20234;-60
2022/02/01 07:55:34;;;;;;;2.90;1.20;;;17.60;51.00;;;;;;5052928;28;20232;-60
2022/02/01 07:58:00;;;;;;;1.80;1.15;;;17.80;50.70;;;;;;5052575;28;20175;-60
2022/02/01 08:00:25;;;;;;;1.80;1.05;;;18.00;50.40;;;;;;5052074;28;20582;-60
2022/02/01 08:02:55;;;;;;;2.35;1.15;;;18.00;50.30;;;;;;5052647;28;20258;-63
2022/02/01 08:05:25;;;;;;;4.57;1.70;;;18.00;50.40;;;;;;5051783;28;20245;-62
2022/02/01 08:07:53;;;;;;;2.63;1.38;;;18.10;50.80;;;;;;5052631;28;20179;-62
2022/02/01 08:10:19;;;;;;;3.50;1.60;;;18.00;51.20;;;;;;5052483;28;20253;-64
2022/02/01 08:21:07;;;;;;;4.13;1.55;;;18.20;51.70;;;;;;4989895;28;20636;-62
2022/02/01 08:23:34;;;;;;;4.18;1.67;;;18.20;52.00;;;;;;4991048;28;20292;-61
2022/02/01 08:25:59;;;;;;;7.30;1.83;;;18.20;52.10;;;;;;5019491;28;20191;-62
2022/02/01 08:28:25;;;;;;;2.72;1.40;;;18.20;52.20;;;;;;5051568;28;20180;-63
2022/02/01 08:30:51;;;;;;;5.70;1.60;;;18.20;52.30;;;;;;5034540;28;20163;-64
2022/02/01 08:33:19;;;;;;;4.18;1.55;;;18.20;52.40;;;;;;5051901;28;20217;-64
2022/02/01 08:35:45;;;;;;;4.35;1.45;;;18.20;52.20;;;;;;5051941;28;20191;-64
2022/02/01 08:38:10;;;;;;;2.85;1.50;;;18.30;52.30;;;;;;5052028;28;20209;-62
2022/02/01 08:40:36;;;;;;;4.30;2.05;;;18.30;52.40;;;;;;5051367;28;20217;-62
2022/02/01 08:43:01;;;;;;;4.65;2.00;;;18.30;52.30;;;;;;5051789;28;20175;-63
2022/02/01 08:45:27;;;;;;;2.05;1.45;;;18.30;52.30;;;;;;5052250;28;20240;-63
2022/02/01 08:47:54;;;;;;;2.60;1.90;;;18.40;52.30;;;;;;5051209;28;20254;-63
2022/02/01 08:50:24;;;;;;;2.95;1.77;;;18.30;52.20;;;;;;5052245;28;20542;-63
2022/02/01 08:52:51;;;;;;;4.20;1.73;;;18.40;52.20;;;;;;5051781;28;20242;-63
2022/02/01 08:55:32;;;;;;;3.83;1.27;;;18.50;52.10;;;;;;5051001;28;20545;-63
2022/02/01 08:57:58;;;;;;;3.72;1.90;;;18.40;52.00;;;;;;5051951;28;20171;-63
2022/02/01 09:00:23;;;;;;;4.03;1.55;;;18.50;52.10;;;;;;5054184;28;20649;-63
2022/02/01 09:02:49;;;;;;;2.05;1.50;;;18.50;52.10;;;;;;5055030;28;20696;-63
2022/02/01 09:05:14;;;;;;;3.45;1.70;;;18.50;52.10;;;;;;5055257;28;20182;-63
2022/02/01 09:07:40;;;;;;;2.67;1.48;;;18.40;52.10;;;;;;5055485;28;20186;-63
2022/02/01 09:10:06;;;;;;;2.55;1.70;;;18.50;52.00;;;;;;5054319;28;20637;-62
2022/02/01 09:12:31;;;;;;;2.95;1.80;;;18.50;52.60;;;;;;5055555;28;20211;-63
2022/02/01 09:14:57;;;;;;;4.18;1.70;;;18.40;52.00;;;;;;5055185;28;20263;-63
2022/02/01 09:17:22;;;;;;;3.00;1.50;;;18.50;52.00;;;;;;5054681;28;20179;-62
2022/02/01 09:19:48;;;;;;;2.28;1.38;;;18.50;51.90;;;;;;5055274;28;20228;-62
2022/02/01 09:22:14;;;;;;;2.08;1.30;;;18.60;51.90;;;;;;5054869;28;20517;-62
2022/02/01 09:24:41;;;;;;;3.70;1.63;;;18.60;51.80;;;;;;5054379;28;20553;-62
2022/02/01 09:27:06;;;;;;;3.85;1.65;;;18.60;51.80;;;;;;5054832;28;20644;-62
2022/02/01 09:29:33;;;;;;;2.08;1.50;;;18.60;51.70;;;;;;5055124;28;20175;-63
2022/02/01 09:31:59;;;;;;;2.92;1.85;;;18.60;51.80;;;;;;5054478;28;20590;-63
2022/02/01 09:34:25;;;;;;;2.55;1.52;;;18.60;51.80;;;;;;5054992;28;20179;-64
2022/02/01 09:36:51;;;;;;;2.95;1.50;;;18.60;51.80;;;;;;5054284;28;20163;-63
2022/02/01 09:39:17;;;;;;;4.30;1.63;;;18.60;51.80;;;;;;5055017;28;20593;-63
2022/02/01 09:41:43;;;;;;;2.33;1.50;;;18.60;51.70;;;;;;5055014;28;20202;-63
2022/02/01 09:44:08;;;;;;;2.20;1.40;;;18.50;51.80;;;;;;5053873;28;20242;-63
2022/02/01 09:46:37;;;;;;;3.92;1.98;;;18.50;52.00;;;;;;5054740;28;20171;-63
2022/02/01 09:49:03;;;;;;;1.77;1.60;;;18.50;51.90;;;;;;5054465;28;20167;-66
2022/02/01 09:51:29;;;;;;;4.03;2.10;;;18.60;51.80;;;;;;5061202;28;20536;-64
2022/02/01 09:53:54;;;;;;;5.20;1.80;;;18.60;51.80;;;;;;5059702;28;20229;-64
2022/02/01 09:56:20;;;;;;;3.13;1.50;;;18.60;51.80;;;;;;5055455;28;20163;-66
2022/02/01 09:58:48;;;;;;;4.40;1.55;;;18.60;52.00;;;;;;5061864;28;20209;-64
2022/02/01 10:01:39;;;;;;;2.50;1.48;;;18.60;52.00;;;;;;5064027;28;20167;-64
2022/02/01 10:04:06;;;;;;;2.97;1.60;;;18.70;52.00;;;;;;5064584;28;20186;-67
2022/02/01 10:06:34;;;;;;;3.00;1.48;;;18.70;52.00;;;;;;5063224;28;20203;-63
2022/02/01 10:09:10;;;;;;;1.52;1.10;;;18.70;52.00;;;;;;5074155;28;20636;-63
2022/02/01 10:11:46;;;;;;;4.15;1.63;;;18.60;52.10;;;;;;5074350;28;20189;-64
2022/02/01 10:14:21;;;;;;;2.17;1.10;;;18.40;52.20;;;;;;5064716;28;20182;-63
2022/02/01 10:16:50;;;;;;;2.38;1.40;;;18.30;52.30;;;;;;5055978;28;20281;-63
2022/02/01 10:19:19;;;;;;;3.22;1.20;;;18.30;52.50;;;;;;5073362;28;20221;-63
2022/02/01 10:22:01;;;;;;;2.58;1.08;;;18.20;52.60;;;;;;5066425;28;20195;-63
2022/02/01 10:24:41;;;;;;;1.48;1.10;;;18.20;52.70;;;;;;5053942;28;20706;-63
2022/02/01 10:27:18;;;;;;;1.65;1.15;;;18.10;52.70;;;;;;5052755;28;20646;-63
2022/02/01 10:30:19;;;;;;;1.70;1.02;;;18.10;52.70;;;;;;5056467;28;20182;-64
2022/02/01 10:33:11;;;;;;;2.75;1.30;;;18.10;52.70;;;;;;5074051;28;20207;-64
2022/02/01 10:35:55;;;;;;;1.38;1.00;;;18.00;52.70;;;;;;5073661;28;20182;-65
2022/02/01 10:38:21;;;;;;;1.33;1.20;;;18.00;52.80;;;;;;5073769;28;20178;-64
2022/02/01 10:40:48;;;;;;;1.35;1.10;;;17.90;52.90;;;;;;5072836;28;20166;-64
2022/02/01 10:43:24;;;;;;;1.48;1.05;;;17.90;53.00;;;;;;5073315;28;20185;-64
2022/02/01 10:45:51;;;;;;;2.25;1.30;;;17.90;53.00;;;;;;5073515;28;20209;-63
2022/02/01 10:48:20;;;;;;;1.83;0.98;;;17.90;53.00;;;;;;5056972;28;20681;-64
2022/02/01 10:50:46;;;;;;;1.65;1.15;;;17.90;53.00;;;;;;5060553;28;20194;-63
2022/02/01 10:53:18;;;;;;;1.30;1.10;;;17.90;53.00;;;;;;5068421;28;20276;-63
2022/02/01 10:55:45;;;;;;;1.30;1.20;;;17.90;53.00;;;;;;5052684;28;20235;-66
2022/02/01 10:58:11;;;;;;;2.33;0.90;;;17.90;53.00;;;;;;5063047;28;20171;-65
2022/02/01 11:00:36;;;;;;;1.27;1.17;;;17.90;53.00;;;;;;5073306;28;20231;-64
2022/02/01 11:03:02;;;;;;;1.05;0.80;;;17.90;53.00;;;;;;5072164;28;20249;-65
2022/02/01 11:05:27;;;;;;;1.63;1.40;;;18.00;52.90;;;;;;5055402;28;20587;-65
2022/02/01 11:07:54;;;;;;;0.90;0.90;;;18.00;52.80;;;;;;5035069;28;20618;-65
2022/02/01 11:10:19;;;;;;;1.05;1.00;;;18.00;52.80;;;;;;5034789;28;20653;-63
2022/02/01 11:12:44;;;;;;;1.02;0.93;;;18.00;52.80;;;;;;5035088;28;20662;-63
2022/02/01 11:15:20;;;;;;;1.20;0.88;;;17.90;52.80;;;;;;5051833;28;20187;-63
2022/02/01 11:17:47;;;;;;;1.00;0.90;;;17.90;52.80;;;;;;5052974;28;20183;-63
2022/02/01 11:20:13;;;;;;;1.60;1.23;;;17.90;52.90;;;;;;5052893;28;20179;-64
2022/02/01 11:22:42;;;;;;;1.00;0.85;;;17.80;52.90;;;;;;5035051;28;20614;-63
2022/02/01 11:25:23;;;;;;;1.13;1.00;;;17.80;53.00;;;;;;5072672;28;20633;-64
2022/02/01 11:28:14;;;;;;;1.08;0.75;;;17.90;53.00;;;;;;5073140;28;20198;-64
2022/02/01 11:30:39;;;;;;;1.55;0.80;;;17.90;53.00;;;;;;5072173;28;20249;-64
2022/02/01 11:33:05;;;;;;;1.27;1.17;;;17.90;53.00;;;;;;5072312;28;20745;-64
2022/02/01 11:35:31;;;;;;;1.23;1.00;;;17.90;53.00;;;;;;5072975;28;20174;-65
2022/02/01 11:38:05;;;;;;;0.68;0.65;;;17.90;53.00;;;;;;5071658;28;20173;-65
2022/02/01 11:40:41;;;;;;;1.10;0.95;;;18.00;53.00;;;;;;5072859;28;20204;-64
2022/02/01 11:43:09;;;;;;;1.25;1.00;;;18.00;53.00;;;;;;5072464;28;20178;-65
2022/02/01 11:45:39;;;;;;;1.67;0.90;;;18.00;53.00;;;;;;5071720;28;20625;-63
2022/02/01 11:48:25;;;;;;;1.17;1.08;;;18.00;53.50;;;;;;5072332;28;20257;-64
2022/02/01 11:50:53;;;;;;;0.90;0.82;;;18.00;52.80;;;;;;5072047;28;20174;-63
2022/02/01 11:53:20;;;;;;;1.25;0.90;;;18.00;52.80;;;;;;5072333;28;20241;-64
2022/02/01 11:55:47;;;;;;;1.17;0.73;;;17.90;52.90;;;;;;5072549;28;20625;-65
2022/02/01 11:58:12;;;;;;;0.68;0.68;;;17.90;53.00;;;;;;5058641;28;20696;-66
2022/02/01 12:00:39;;;;;;;0.60;0.60;;;17.90;53.00;;;;;;5052498;28;20179;-64
2022/02/01 12:03:04;;;;;;;0.82;0.77;;;17.90;53.10;;;;;;5052333;28;20699;-64
2022/02/01 12:05:32;;;;;;;1.17;0.80;;;17.90;53.10;;;;;;5052030;28;20257;-65
2022/02/01 12:08:06;;;;;;;1.20;0.80;;;17.90;53.20;;;;;;5052178;28;20183;-63
2022/02/01 12:10:40;;;;;;;1.42;0.90;;;17.90;53.10;;;;;;5052718;28;20209;-61
2022/02/01 12:13:06;;;;;;;2.28;0.80;;;17.90;53.20;;;;;;5051349;28;20229;-60
2022/02/01 12:15:34;;;;;;;1.25;0.98;;;17.90;53.30;;;;;;5052131;28;20175;-62
2022/02/01 12:18:10;;;;;;;1.20;0.80;;;17.90;53.30;;;;;;5052171;28;20282;-63
2022/02/01 12:20:38;;;;;;;2.15;0.60;;;18.00;53.30;;;;;;5051712;28;20388;-62
2022/02/01 12:23:23;;;;;;;0.75;0.60;;;18.00;53.20;;;;;;5072078;28;20170;-62
2022/02/01 12:25:49;;;;;;;2.20;0.90;;;18.00;53.10;;;;;;5071520;28;20179;-62
2022/02/01 12:28:26;;;;;;;1.05;0.70;;;18.00;53.20;;;;;;5072082;28;20216;-63
2022/02/01 12:30:52;;;;;;;3.13;0.70;;;17.90;53.20;;;;;;5072185;28;20175;-62
2022/02/01 12:33:27;;;;;;;0.63;0.63;;;17.80;53.40;;;;;;5071183;28;20217;-71
2022/02/01 12:35:55;;;;;;;4.47;1.10;;;17.90;53.60;;;;;;5074815;28;20178;-63
2022/02/01 12:38:24;;;;;;;2.42;1.00;;;17.90;53.80;;;;;;5075906;28;20649;-64
2022/02/01 12:40:56;;;;;;;2.42;0.80;;;17.90;53.80;;;;;;5075425;28;20261;-64
2022/02/01 12:43:25;;;;;;;2.35;0.70;;;17.90;53.70;;;;;;5076000;28;20174;-63
2022/02/01 12:46:33;;;;;;;3.42;0.90;;;17.90;53.60;;;;;;5058596;28;20232;-62
2022/02/01 12:48:58;;;;;;;5.28;1.13;;;18.00;53.60;;;;;;5061408;28;20186;-62
2022/02/01 12:51:24;;;;;;;3.67;0.70;;;18.00;53.60;;;;;;5075415;28;20663;-62
2022/02/01 12:53:50;;;;;;;2.08;0.73;;;18.00;53.50;;;;;;5075130;28;20225;-63
2022/02/01 12:56:25;;;;;;;2.58;0.90;;;18.00;53.60;;;;;;5075318;28;20170;-62
2022/02/01 12:59:00;;;;;;;2.15;0.90;;;17.90;53.50;;;;;;5057583;28;20189;-63
2022/02/01 13:01:37;;;;;;;3.35;1.10;;;17.90;53.60;;;;;;5054857;28;20171;-63
2022/02/01 13:04:03;;;;;;;1.38;0.82;;;17.90;53.60;;;;;;5055417;28;20181;-63
2022/02/01 13:06:31;;;;;;;3.25;0.80;;;17.80;53.70;;;;;;5055635;28;20183;-62
2022/02/01 13:14:40;;;;;;;2.55;1.05;;;17.80;53.80;;;;;;5055475;28;20272;-62
2022/02/01 13:20:10;;;;;;;3.40;0.90;;;17.90;53.80;;;;;;5055300;28;20185;-61
2022/02/01 13:22:36;;;;;;;2.53;1.33;;;17.90;53.70;;;;;;5057864;28;20173;-62
2022/02/01 13:25:06;;;;;;;0.90;0.77;;;17.80;53.70;;;;;;5075014;28;20182;-62
2022/02/01 13:27:32;;;;;;;1.60;0.80;;;17.80;53.70;;;;;;5075162;28;20209;-62
2022/02/01 13:29:59;;;;;;;0.85;0.63;;;17.80;53.80;;;;;;5074204;28;20217;-62
2022/02/01 13:32:37;;;;;;;0.80;0.73;;;17.70;53.90;;;;;;5074875;28;20239;-63
2022/02/01 13:35:07;;;;;;;3.03;0.93;;;17.70;54.00;;;;;;5074638;28;20574;-63
2022/02/01 13:37:34;;;;;;;2.22;0.98;;;17.70;54.00;;;;;;5074445;28;20254;-63
2022/02/01 13:40:00;;;;;;;1.55;0.73;;;17.70;54.00;;;;;;5074642;28;20181;-63
2022/02/01 13:42:30;;;;;;;1.73;0.88;;;17.70;54.00;;;;;;5074877;28;20536;-63
2022/02/01 13:44:59;;;;;;;1.85;0.70;;;17.80;53.90;;;;;;5073447;28;20170;-62
2022/02/01 13:47:50;;;;;;;1.98;0.77;;;17.80;53.90;;;;;;5074932;28;20202;-62
2022/02/01 13:50:20;;;;;;;1.55;0.70;;;17.80;53.80;;;;;;5050951;28;20668;-62
2022/02/01 13:52:59;;;;;;;1.52;0.80;;;17.70;53.70;;;;;;5074523;28;20234;-63
2022/02/01 13:55:25;;;;;;;1.70;0.77;;;17.80;53.80;;;;;;5074685;28;20201;-62
2022/02/01 13:58:17;;;;;;;1.83;1.00;;;17.70;53.80;;;;;;5064174;28;20228;-63
2022/02/01 14:00:45;;;;;;;2.10;1.00;;;17.70;53.90;;;;;;5043442;28;20266;-62
2022/02/01 14:06:24;;;;;;;1.05;0.85;;;17.60;54.10;;;;;;5053727;28;20186;-63
2022/02/01 14:12:11;;;;;;;1.23;0.70;;;17.70;54.10;;;;;;5019950;28;20658;-62
2022/02/01 14:25:51;;;;;;;3.03;0.90;;;17.70;53.90;;;;;;5073254;28;20212;-61
2022/02/01 14:28:32;;;;;;;1.23;0.80;;;17.60;53.90;;;;;;5073711;28;20174;-62
2022/02/01 14:36:11;;;;;;;1.05;0.85;;;17.60;54.10;;;;;;5073570;28;20171;-63
2022/02/01 14:44:26;;;;;;;1.77;0.88;;;17.70;54.10;;;;;;5044659;28;20191;-62
2022/02/01 14:46:51;;;;;;;1.33;0.90;;;17.70;54.00;;;;;;5072656;28;20183;-63
2022/02/01 14:49:17;;;;;;;1.40;0.80;;;17.80;53.90;;;;;;5073217;28;20269;-62
2022/02/01 14:51:42;;;;;;;1.35;0.70;;;17.80;53.80;;;;;;5073199;28;20245;-62
2022/02/01 14:54:11;;;;;;;1.45;0.80;;;17.70;53.80;;;;;;5072168;28;20672;-62